createdAt,value
2022-10-04T00:04:29.698Z,10.89
2022-10-04T00:10:15.713Z,10.88
2022-10-04T00:15:27.517Z,10.85
2022-10-04T00:20:51.111Z,10.83
2022-10-04T00:25:58.231Z,10.80
2022-10-04T00:31:25.194Z,10.77
2022-10-04T00:36:38.100Z,10.72
2022-10-04T00:41:48.060Z,10.69
2022-10-04T00:46:52.851Z,10.61
2022-10-04T00:52:15.338Z,10.50
2022-10-04T00:57:26.162Z,10.38
2022-10-04T01:02:40.391Z,10.22
2022-10-04T01:07:50.355Z,10.08
2022-10-04T01:13:04.814Z,10.00
2022-10-04T01:18:18.575Z,9.91
2022-10-04T01:23:51.988Z,9.84
2022-10-04T01:29:03.677Z,9.72
2022-10-04T01:34:07.519Z,9.68
2022-10-04T01:39:11.099Z,9.67
2022-10-04T01:44:56.251Z,9.69
2022-10-04T01:50:03.071Z,9.73
2022-10-04T01:55:16.051Z,9.76
2022-10-04T02:00:22.293Z,9.79
2022-10-04T02:05:33.897Z,9.85
2022-10-04T02:10:43.456Z,9.82
2022-10-04T02:15:47.985Z,9.77
2022-10-04T02:20:52.011Z,9.73
2022-10-04T02:25:55.736Z,9.76
2022-10-04T02:31:18.235Z,9.82
2022-10-04T02:36:25.012Z,9.83
2022-10-04T02:41:35.961Z,9.78
2022-10-04T02:46:50.663Z,9.72
2022-10-04T02:52:09.113Z,9.69
2022-10-04T02:57:21.184Z,9.63
2022-10-04T03:02:30.605Z,9.59
2022-10-04T03:07:35.712Z,9.51
2022-10-04T03:12:45.586Z,9.41
2022-10-04T03:17:54.272Z,9.39
2022-10-04T03:22:59.940Z,9.34
2022-10-04T03:28:05.854Z,9.37
2022-10-04T03:33:12.579Z,9.27
2022-10-04T03:38:16.497Z,9.19
2022-10-04T03:43:24.371Z,9.14
2022-10-04T03:48:36.303Z,9.08
2022-10-04T03:53:54.361Z,8.99
2022-10-04T03:59:14.414Z,8.98
2022-10-04T04:04:36.110Z,8.99
2022-10-04T04:09:46.203Z,9.00
2022-10-04T04:14:54.961Z,8.94
2022-10-04T04:20:06.899Z,8.85
2022-10-04T04:25:16.669Z,8.80
2022-10-04T04:30:20.074Z,8.83
2022-10-04T04:35:41.430Z,8.80
2022-10-04T04:40:47.190Z,8.77
2022-10-04T04:46:08.449Z,8.77
2022-10-04T04:51:21.942Z,8.79
2022-10-04T04:56:29.883Z,8.86
2022-10-04T05:01:45.070Z,8.90
2022-10-04T05:06:50.192Z,8.90
2022-10-04T05:11:58.966Z,8.93
2022-10-04T05:17:02.496Z,8.96
2022-10-04T05:22:18.281Z,9.04
2022-10-04T05:27:43.034Z,9.10
2022-10-04T05:32:59.280Z,9.16
2022-10-04T05:39:03.779Z,9.25
2022-10-04T05:44:37.318Z,9.43
2022-10-04T05:49:44.172Z,9.59
2022-10-04T05:54:47.601Z,9.77
2022-10-04T06:00:13.485Z,9.89
2022-10-04T06:05:55.326Z,9.97
2022-10-04T06:11:23.142Z,10.08
2022-10-04T06:16:48.662Z,10.16
2022-10-04T06:22:16.757Z,10.22
2022-10-04T06:27:43.111Z,10.39
2022-10-04T06:33:17.829Z,10.48
2022-10-04T06:38:33.116Z,10.65
2022-10-04T06:43:40.477Z,10.85
2022-10-04T06:48:48.112Z,11.08
2022-10-04T06:53:51.490Z,11.31
2022-10-04T06:59:39.396Z,11.57
2022-10-04T07:05:08.613Z,11.90
2022-10-04T07:10:32.419Z,11.99
2022-10-04T07:15:52.833Z,11.99
2022-10-04T07:21:09.858Z,12.05
2022-10-04T07:26:42.333Z,12.21
2022-10-04T07:31:48.233Z,12.29
2022-10-04T07:36:58.776Z,12.54
2022-10-04T07:42:49.326Z,12.65
2022-10-04T07:48:17.463Z,12.95
2022-10-04T07:53:34.834Z,13.03
2022-10-04T07:59:07.398Z,13.03
2022-10-04T08:04:18.754Z,13.15
2022-10-04T08:09:39.082Z,13.33
2022-10-04T08:15:09.530Z,13.43
2022-10-04T08:20:42.020Z,13.62
2022-10-04T08:25:57.858Z,13.70
2022-10-04T08:31:11.871Z,13.73
2022-10-04T08:36:18.175Z,13.73
2022-10-04T08:41:34.115Z,13.46
2022-10-04T08:46:56.851Z,13.40
2022-10-04T08:52:12.269Z,13.69
2022-10-04T08:57:54.057Z,13.90
2022-10-04T09:03:09.379Z,13.83
2022-10-04T09:08:31.510Z,13.87
2022-10-04T09:13:47.844Z,14.07
2022-10-04T09:18:52.894Z,14.21
2022-10-04T09:24:14.961Z,14.65
2022-10-04T09:29:48.231Z,15.02
2022-10-04T09:35:18.256Z,15.25
2022-10-04T09:41:02.323Z,15.04
2022-10-04T09:46:20.855Z,14.88
2022-10-04T09:51:48.527Z,14.72
2022-10-04T09:57:10.806Z,14.65
2022-10-04T10:02:35.259Z,14.54
2022-10-04T10:08:16.066Z,14.91
2022-10-04T10:13:40.573Z,14.92
2022-10-04T10:18:59.181Z,14.90
2022-10-04T10:24:36.123Z,14.80
2022-10-04T10:29:59.830Z,14.68
2022-10-04T10:35:45.387Z,14.65
2022-10-04T10:41:36.148Z,14.53
2022-10-04T10:46:58.729Z,14.97
2022-10-04T10:52:25.978Z,15.59
2022-10-04T10:58:08.099Z,16.07
2022-10-04T11:03:50.526Z,15.76
2022-10-04T11:09:29.338Z,15.25
2022-10-04T11:14:49.568Z,15.58
2022-10-04T11:20:24.659Z,15.89
2022-10-04T11:26:00.194Z,16.22
2022-10-04T11:31:13.331Z,16.50
2022-10-04T11:36:33.237Z,16.48
2022-10-04T11:41:45.676Z,16.51
2022-10-04T11:47:21.972Z,16.02
2022-10-04T11:52:57.932Z,15.75
2022-10-04T11:58:16.429Z,16.09
2022-10-04T12:03:37.983Z,16.07
2022-10-04T12:09:06.325Z,15.28
2022-10-04T12:14:43.165Z,15.21
2022-10-04T12:19:58.339Z,15.62
2022-10-04T12:25:43.788Z,16.09
2022-10-04T12:31:08.592Z,16.33
2022-10-04T12:36:31.433Z,16.14
2022-10-04T12:41:35.007Z,15.81
2022-10-04T12:46:57.810Z,15.80
2022-10-04T12:52:20.141Z,15.88
2022-10-04T12:57:23.636Z,15.99
2022-10-04T13:02:51.487Z,16.11
2022-10-04T13:08:18.066Z,16.22
2022-10-04T13:13:37.151Z,16.25
2022-10-04T13:19:18.886Z,16.25
2022-10-04T13:25:02.759Z,16.26
2022-10-04T13:30:40.746Z,16.10
2022-10-04T13:35:54.893Z,16.09
2022-10-04T13:41:19.136Z,16.14
2022-10-04T13:46:25.378Z,16.08
2022-10-04T13:51:48.284Z,15.84
2022-10-04T13:57:21.819Z,15.36
2022-10-04T14:02:48.224Z,15.46
2022-10-04T14:08:07.672Z,15.58
2022-10-04T14:13:30.105Z,15.65
2022-10-04T14:19:11.758Z,15.64
2022-10-04T14:24:42.785Z,15.58
2022-10-04T14:30:11.115Z,15.43
2022-10-04T14:35:35.348Z,15.35
2022-10-04T14:41:07.878Z,15.17
2022-10-04T14:46:20.173Z,15.10
2022-10-04T14:52:05.460Z,15.13
2022-10-04T14:57:20.801Z,15.13
2022-10-04T15:02:28.783Z,15.07
2022-10-04T15:07:39.316Z,15.00
2022-10-04T15:13:12.280Z,14.93
2022-10-04T15:18:31.452Z,14.83
2022-10-04T15:23:43.580Z,14.69
2022-10-04T15:28:49.923Z,14.61
2022-10-04T15:34:25.830Z,14.49
2022-10-04T15:39:40.141Z,14.33
2022-10-04T15:45:18.594Z,14.19
2022-10-04T15:50:31.105Z,14.12
2022-10-04T15:55:38.232Z,14.11
2022-10-04T16:01:22.984Z,14.00
2022-10-04T16:06:33.652Z,13.76
2022-10-04T16:12:06.625Z,13.51
2022-10-04T16:17:19.875Z,13.19
2022-10-04T16:22:34.417Z,12.84
2022-10-04T16:27:47.234Z,12.47
2022-10-04T16:34:01.314Z,12.16
2022-10-04T16:40:20.185Z,11.80
2022-10-04T16:46:04.999Z,11.43
2022-10-04T16:51:56.772Z,11.16
2022-10-04T16:57:08.326Z,10.92
2022-10-04T17:02:54.283Z,10.71
2022-10-04T17:08:17.894Z,10.47
2022-10-04T17:13:27.368Z,10.24
2022-10-04T17:18:55.797Z,10.08
2022-10-04T17:24:17.329Z,9.90
2022-10-04T17:29:38.798Z,9.75
2022-10-04T17:34:59.890Z,9.63
2022-10-04T17:40:14.917Z,9.52
2022-10-04T17:45:39.336Z,9.44
2022-10-04T17:51:16.597Z,9.33
2022-10-04T17:56:33.326Z,9.28
2022-10-04T18:01:46.827Z,9.16
2022-10-04T18:07:14.039Z,9.07
2022-10-04T18:12:32.559Z,8.95
2022-10-04T18:17:50.838Z,8.81
2022-10-04T18:22:59.846Z,8.68
2022-10-04T18:28:08.289Z,8.59
2022-10-04T18:33:26.172Z,8.50
2022-10-04T18:38:41.997Z,8.42
2022-10-04T18:44:16.845Z,8.34
2022-10-04T18:49:26.757Z,8.28
2022-10-04T18:54:48.604Z,8.21
2022-10-04T19:00:53.892Z,8.14
2022-10-04T19:06:19.078Z,8.04
2022-10-04T19:11:41.145Z,7.93
2022-10-04T19:17:45.139Z,7.81
2022-10-04T19:23:13.311Z,7.68
2022-10-04T19:28:30.032Z,7.65
2022-10-04T19:34:10.852Z,7.58
2022-10-04T19:39:44.391Z,7.48
2022-10-04T19:45:27.590Z,7.41
2022-10-04T19:50:43.793Z,7.30
2022-10-04T19:56:01.012Z,7.23
2022-10-04T20:01:17.781Z,7.14
2022-10-04T20:06:30.434Z,7.10
2022-10-04T20:11:49.833Z,7.15
2022-10-04T20:17:03.897Z,7.16
2022-10-04T20:22:35.842Z,7.11
2022-10-04T20:27:45.629Z,7.11
2022-10-04T20:32:52.219Z,7.06
2022-10-04T20:38:30.487Z,6.96
2022-10-04T20:43:27.970Z,6.85
2022-10-04T20:48:38.484Z,6.76
2022-10-04T20:53:48.262Z,6.67
2022-10-04T20:58:55.701Z,6.62
2022-10-04T21:04:33.403Z,6.57
2022-10-04T21:09:39.092Z,6.48
2022-10-04T21:15:08.638Z,6.44
2022-10-04T21:20:52.363Z,6.46
2022-10-04T21:26:28.649Z,6.44
2022-10-04T21:31:35.353Z,6.36
2022-10-04T21:36:44.755Z,6.30
2022-10-04T21:41:51.688Z,6.29
2022-10-04T21:46:58.618Z,6.30
2022-10-04T21:52:02.880Z,6.30
2022-10-04T21:57:08.023Z,6.28
2022-10-04T22:02:12.496Z,6.29
2022-10-04T22:07:16.268Z,6.29
2022-10-04T22:12:27.393Z,6.29
2022-10-04T22:17:45.829Z,6.26
2022-10-04T22:22:52.835Z,6.26
2022-10-04T22:27:56.717Z,6.27
2022-10-04T22:33:01.894Z,6.27
2022-10-04T22:38:05.760Z,6.22
2022-10-04T22:43:13.471Z,6.16
2022-10-04T22:48:19.001Z,6.11
2022-10-04T22:53:29.122Z,6.07
2022-10-04T22:58:32.302Z,6.02
2022-10-04T23:03:35.810Z,5.97
2022-10-04T23:08:39.029Z,5.98
2022-10-04T23:13:45.082Z,6.03
2022-10-04T23:19:01.900Z,6.02
2022-10-04T23:24:21.234Z,6.01
2022-10-04T23:29:28.382Z,5.97
2022-10-04T23:34:36.914Z,5.94
2022-10-04T23:39:40.650Z,5.94
2022-10-04T23:44:44.062Z,5.96
2022-10-04T23:49:49.865Z,6.00
2022-10-04T23:54:54.675Z,6.03
